createdAt,value
2023-04-08T00:01:09.937Z,95386.50
2023-04-08T00:03:38.417Z,95389.09
2023-04-08T00:06:07.201Z,95391.94
2023-04-08T00:08:36.656Z,95395.56
2023-04-08T00:11:05.584Z,95389.53
2023-04-08T00:13:33.711Z,95395.00
2023-04-08T00:16:01.916Z,95394.19
2023-04-08T00:18:30.269Z,95391.97
2023-04-08T00:20:58.275Z,95396.84
2023-04-08T00:23:27.052Z,95389.78
2023-04-08T00:25:56.769Z,95399.66
2023-04-08T00:28:25.028Z,95389.38
2023-04-08T00:30:54.605Z,95392.44
2023-04-08T00:33:24.912Z,95396.06
2023-04-08T00:35:53.368Z,95393.63
2023-04-08T00:38:22.015Z,95398.06
2023-04-08T00:40:50.582Z,95398.28
2023-04-08T00:43:20.923Z,95402.13
2023-04-08T00:45:49.670Z,95398.09
2023-04-08T00:48:18.685Z,95401.13
2023-04-08T00:50:47.224Z,95406.78
2023-04-08T00:53:19.424Z,95406.38
2023-04-08T00:55:48.346Z,95409.22
2023-04-08T00:58:20.711Z,95409.22
2023-04-08T01:01:01.559Z,95412.22
2023-04-08T01:03:40.562Z,95401.75
2023-04-08T01:06:17.105Z,95404.59
2023-04-08T01:08:49.399Z,95402.97
2023-04-08T01:11:20.443Z,95402.19
2023-04-08T01:14:21.442Z,95397.97
2023-04-08T01:16:50.190Z,95400.59
2023-04-08T01:19:36.901Z,95395.56
2023-04-08T01:22:14.670Z,95395.75
2023-04-08T01:24:46.727Z,95397.78
2023-04-08T01:27:19.024Z,95397.78
2023-04-08T01:29:51.534Z,95384.94
2023-04-08T01:32:20.653Z,95397.19
2023-04-08T01:34:50.090Z,95392.97
2023-04-08T01:37:20.225Z,95396.56
2023-04-08T01:39:50.882Z,95391.56
2023-04-08T01:42:22.434Z,95402.22
2023-04-08T01:44:52.630Z,95398.41
2023-04-08T01:47:20.945Z,95395.41
2023-04-08T01:49:50.897Z,95393.59
2023-04-08T01:52:21.992Z,95390.41
2023-04-08T01:54:50.433Z,95400.84
2023-04-08T01:57:26.264Z,95391.38
2023-04-08T02:00:01.360Z,95394.00
2023-04-08T02:02:33.316Z,95398.41
2023-04-08T02:05:02.271Z,95394.41
2023-04-08T02:07:30.854Z,95390.59
2023-04-08T02:10:00.184Z,95383.56
2023-04-08T02:12:29.874Z,95389.00
2023-04-08T02:14:59.065Z,95392.63
2023-04-08T02:17:38.129Z,95394.84
2023-04-08T02:20:09.601Z,95392.41
2023-04-08T02:22:44.796Z,95396.25
2023-04-08T02:25:17.368Z,95399.06
2023-04-08T02:27:49.427Z,95397.47
2023-04-08T02:30:20.586Z,95397.88
2023-04-08T02:32:51.609Z,95400.47
2023-04-08T02:35:21.923Z,95400.91
2023-04-08T02:37:50.422Z,95397.50
2023-04-08T02:40:28.031Z,95403.50
2023-04-08T02:42:59.471Z,95401.06
2023-04-08T02:45:31.456Z,95401.06
2023-04-08T02:48:01.587Z,95395.06
2023-04-08T02:50:29.745Z,95396.06
2023-04-08T02:52:57.828Z,95395.47
2023-04-08T02:55:26.458Z,95395.47
2023-04-08T02:57:55.379Z,95395.47
2023-04-08T03:00:25.059Z,95403.09
2023-04-08T03:02:53.429Z,95401.06
2023-04-08T03:05:21.844Z,95397.50
2023-04-08T03:07:50.921Z,95398.06
2023-04-08T03:10:19.283Z,95400.69
2023-04-08T03:12:47.472Z,95398.66
2023-04-08T03:15:15.981Z,95402.06
2023-04-08T03:17:46.424Z,95404.47
2023-04-08T03:20:14.666Z,95404.47
2023-04-08T03:22:42.726Z,95402.69
2023-04-08T03:25:11.856Z,95417.53
2023-04-08T03:27:41.306Z,95407.09
2023-04-08T03:30:10.337Z,95403.88
2023-04-08T03:32:39.130Z,95401.06
2023-04-08T03:35:10.752Z,95401.88
2023-04-08T03:37:39.667Z,95402.50
2023-04-08T03:40:09.538Z,95412.72
2023-04-08T03:42:37.819Z,95405.47
2023-04-08T03:45:07.342Z,95405.47
2023-04-08T03:47:36.246Z,95409.09
2023-04-08T03:50:04.593Z,95413.94
2023-04-08T03:52:34.136Z,95417.72
2023-04-08T03:55:02.169Z,95419.16
2023-04-08T03:57:30.390Z,95421.56
2023-04-08T03:59:58.488Z,95419.31
2023-04-08T04:02:26.768Z,95424.38
2023-04-08T04:04:55.080Z,95426.97
2023-04-08T04:07:23.619Z,95420.75
2023-04-08T04:09:56.205Z,95428.16
2023-04-08T04:12:24.500Z,95433.19
2023-04-08T04:14:52.995Z,95437.81
2023-04-08T04:17:21.492Z,95427.75
2023-04-08T04:19:49.926Z,95441.41
2023-04-08T04:22:18.020Z,95439.19
2023-04-08T04:24:48.418Z,95438.56
2023-04-08T04:27:19.001Z,95438.97
2023-04-08T04:29:47.326Z,95443.56
2023-04-08T04:32:15.622Z,95447.38
2023-04-08T04:34:44.501Z,95440.75
2023-04-08T04:37:12.637Z,95443.16
2023-04-08T04:39:40.989Z,95448.97
2023-04-08T04:42:09.883Z,95442.50
2023-04-08T04:44:39.782Z,95445.53
2023-04-08T04:47:08.405Z,95455.56
2023-04-08T04:49:36.538Z,95456.78
2023-04-08T04:52:04.566Z,95459.56
2023-04-08T04:54:32.952Z,95459.94
2023-04-08T04:57:01.432Z,95469.00
2023-04-08T04:59:29.596Z,95455.50
2023-04-08T05:01:59.303Z,95452.84
2023-04-08T05:04:28.639Z,95455.66
2023-04-08T05:06:56.727Z,95458.84
2023-04-08T05:09:24.828Z,95459.25
2023-04-08T05:11:53.586Z,95465.06
2023-04-08T05:14:22.010Z,95462.84
2023-04-08T05:16:50.028Z,95461.41
2023-04-08T05:19:19.531Z,95465.94
2023-04-08T05:21:48.471Z,95464.13
2023-04-08T05:24:17.194Z,95458.06
2023-04-08T05:26:45.702Z,95457.94
2023-04-08T05:29:13.778Z,95452.97
2023-04-08T05:31:41.874Z,95456.84
2023-04-08T05:34:10.717Z,95457.44
2023-04-08T05:36:40.328Z,95458.59
2023-04-08T05:39:08.493Z,95455.75
2023-04-08T05:41:37.328Z,95459.75
2023-04-08T05:44:05.463Z,95460.69
2023-04-08T05:46:33.601Z,95463.56
2023-04-08T05:49:02.118Z,95463.56
2023-04-08T05:51:30.322Z,95466.09
2023-04-08T05:54:00.514Z,95458.97
2023-04-08T05:56:28.691Z,95463.50
2023-04-08T05:58:57.285Z,95475.94
2023-04-08T06:01:26.254Z,95474.25
2023-04-08T06:03:56.589Z,95471.31
2023-04-08T06:06:25.748Z,95475.34
2023-04-08T06:08:54.285Z,95474.81
2023-04-08T06:11:24.347Z,95470.03
2023-04-08T06:13:52.819Z,95483.31
2023-04-08T06:16:21.241Z,95482.38
2023-04-08T06:18:50.162Z,95485.63
2023-04-08T06:21:18.796Z,95486.03
2023-04-08T06:23:46.909Z,95490.75
2023-04-08T06:26:15.335Z,95481.97
2023-04-08T06:28:44.719Z,95487.91
2023-04-08T06:31:12.835Z,95494.22
2023-04-08T06:33:40.830Z,95493.69
2023-04-08T06:36:09.745Z,95490.81
2023-04-08T06:38:38.503Z,95490.88
2023-04-08T06:41:08.165Z,95484.31
2023-04-08T06:43:37.982Z,95492.28
2023-04-08T06:46:08.252Z,95483.28
2023-04-08T06:48:38.067Z,95491.28
2023-04-08T06:51:07.874Z,95494.25
2023-04-08T06:53:36.921Z,95496.19
2023-04-08T06:56:05.580Z,95495.84
2023-04-08T06:58:33.683Z,95500.72
2023-04-08T07:01:03.401Z,95509.66
2023-04-08T07:03:33.342Z,95505.75
2023-04-08T07:06:01.517Z,95503.84
2023-04-08T07:08:30.121Z,95504.38
2023-04-08T07:10:58.118Z,95508.41
2023-04-08T07:13:26.475Z,95512.44
2023-04-08T07:15:55.001Z,95511.31
2023-04-08T07:18:24.036Z,95510.50
2023-04-08T07:20:54.227Z,95521.38
2023-04-08T07:23:22.797Z,95517.66
2023-04-08T07:25:51.807Z,95517.88
2023-04-08T07:28:20.499Z,95521.31
2023-04-08T07:30:48.961Z,95523.00
2023-04-08T07:33:17.055Z,95527.22
2023-04-08T07:35:45.536Z,95526.44
2023-04-08T07:38:15.695Z,95529.72
2023-04-08T07:40:43.978Z,95535.78
2023-04-08T07:43:12.607Z,95534.88
2023-04-08T07:45:42.690Z,95543.03
2023-04-08T07:48:12.148Z,95541.31
2023-04-08T07:51:09.430Z,95545.47
2023-04-08T07:53:30.618Z,95548.59
2023-04-08T07:56:00.151Z,95548.44
2023-04-08T07:58:29.750Z,95545.66
2023-04-08T08:00:58.684Z,95549.56
2023-04-08T08:03:27.439Z,95548.88
2023-04-08T08:05:55.749Z,95549.31
2023-04-08T08:08:24.808Z,95553.19
2023-04-08T08:10:54.383Z,95553.44
2023-04-08T08:13:22.422Z,95556.38
2023-04-08T08:15:54.097Z,95554.50
2023-04-08T08:18:22.208Z,95554.50
2023-04-08T08:20:51.032Z,95565.41
2023-04-08T08:23:19.063Z,95566.41
2023-04-08T08:25:47.657Z,95564.56
2023-04-08T08:28:17.085Z,95560.44
2023-04-08T08:30:45.656Z,95564.63
2023-04-08T08:33:13.767Z,95570.63
2023-04-08T08:35:41.809Z,95567.75
2023-04-08T08:38:11.281Z,95565.78
2023-04-08T08:40:40.121Z,95570.06
2023-04-08T08:43:08.555Z,95578.69
2023-04-08T08:45:42.442Z,95585.91
2023-04-08T08:48:11.262Z,95582.22
2023-04-08T08:50:39.772Z,95584.50
2023-04-08T08:53:09.518Z,95586.97
2023-04-08T08:56:00.259Z,95586.97
2023-04-08T08:58:28.848Z,95592.41
2023-04-08T09:00:59.328Z,95599.38
2023-04-08T09:03:31.400Z,95598.00
2023-04-08T09:06:02.098Z,95598.53
2023-04-08T09:08:32.741Z,95608.03
2023-04-08T09:11:16.365Z,95604.97
2023-04-08T09:13:45.046Z,95598.34
2023-04-08T09:16:18.350Z,95606.09
2023-04-08T09:18:50.013Z,95610.66
2023-04-08T09:21:18.952Z,95606.47
2023-04-08T09:23:50.086Z,95605.94
2023-04-08T09:26:21.956Z,95612.25
2023-04-08T09:29:04.075Z,95613.06
2023-04-08T09:31:42.224Z,95607.66
2023-04-08T09:34:13.281Z,95610.31
2023-04-08T09:36:41.717Z,95616.56
2023-04-08T09:39:10.217Z,95613.78
2023-04-08T09:41:40.243Z,95617.22
2023-04-08T09:44:11.104Z,95611.63
2023-04-08T09:47:01.459Z,95615.63
2023-04-08T09:49:35.353Z,95621.47
2023-04-08T09:52:11.723Z,95608.56
2023-04-08T09:54:49.628Z,95616.22
2023-04-08T09:57:27.261Z,95613.19
2023-04-08T10:00:06.880Z,95624.03
2023-04-08T10:02:55.966Z,95620.00
2023-04-08T10:05:26.687Z,95620.41
2023-04-08T10:07:57.344Z,95606.91
2023-04-08T10:10:28.314Z,95607.28
2023-04-08T10:12:57.489Z,95607.88
2023-04-08T10:15:31.370Z,95606.81
2023-04-08T10:18:35.025Z,95602.13
2023-04-08T10:21:03.604Z,95599.19
2023-04-08T10:23:59.613Z,95601.94
2023-04-08T10:26:36.335Z,95602.41
2023-04-08T10:29:32.921Z,95605.31
2023-04-08T10:32:02.783Z,95602.72
2023-04-08T10:34:32.404Z,95596.78
2023-04-08T10:37:02.348Z,95598.53
2023-04-08T10:39:31.918Z,95603.50
2023-04-08T10:42:04.062Z,95604.22
2023-04-08T10:44:32.161Z,95602.31
2023-04-08T10:47:01.509Z,95605.31
2023-04-08T10:49:37.098Z,95599.78
2023-04-08T10:52:09.304Z,95599.28
2023-04-08T10:54:39.562Z,95597.28
2023-04-08T10:57:07.969Z,95601.81
2023-04-08T10:59:36.951Z,95590.59
2023-04-08T11:02:05.193Z,95601.75
2023-04-08T11:04:33.824Z,95594.97
2023-04-08T11:07:08.801Z,95596.63
2023-04-08T11:09:37.607Z,95596.72
2023-04-08T11:12:05.995Z,95599.41
2023-04-08T11:14:35.020Z,95598.66
2023-04-08T11:17:06.147Z,95599.50
2023-04-08T11:19:36.755Z,95602.41
2023-04-08T11:22:07.721Z,95601.66
2023-04-08T11:24:37.295Z,95604.91
2023-04-08T11:27:06.642Z,95601.50
2023-04-08T11:29:38.278Z,95609.81
2023-04-08T11:32:06.902Z,95606.00
2023-04-08T11:34:35.020Z,95605.78
2023-04-08T11:37:03.373Z,95599.38
2023-04-08T11:39:33.660Z,95600.81
2023-04-08T11:42:02.765Z,95607.06
2023-04-08T11:44:33.236Z,95609.69
2023-04-08T11:47:03.415Z,95606.50
2023-04-08T11:49:45.898Z,95606.28
2023-04-08T11:52:14.670Z,95601.03
2023-04-08T11:54:44.992Z,95604.09
2023-04-08T11:57:15.105Z,95614.59
2023-04-08T11:59:44.117Z,95611.97
2023-04-08T12:02:14.052Z,95608.38
2023-04-08T12:04:42.550Z,95614.03
2023-04-08T12:07:11.039Z,95612.06
2023-04-08T12:09:39.528Z,95620.34
2023-04-08T12:12:09.232Z,95616.34
2023-04-08T12:14:38.633Z,95620.78
2023-04-08T12:17:07.416Z,95620.13
2023-04-08T12:19:38.243Z,95621.69
2023-04-08T12:22:06.997Z,95627.47
2023-04-08T12:24:35.456Z,95626.25
2023-04-08T12:27:05.400Z,95630.91
2023-04-08T12:29:35.193Z,95627.31
2023-04-08T12:32:05.293Z,95639.22
2023-04-08T12:34:34.304Z,95628.19
2023-04-08T12:37:03.038Z,95631.09
2023-04-08T12:39:31.386Z,95630.50
2023-04-08T12:42:00.252Z,95632.69
2023-04-08T12:44:29.121Z,95635.34
2023-04-08T12:46:59.375Z,95640.63
2023-04-08T12:49:28.438Z,95638.28
2023-04-08T12:51:57.015Z,95635.06
2023-04-08T12:54:25.654Z,95637.06
2023-04-08T12:56:53.662Z,95643.75
2023-04-08T12:59:21.939Z,95638.53
2023-04-08T13:01:50.641Z,95637.91
2023-04-08T13:04:21.317Z,95645.41
2023-04-08T13:06:49.448Z,95642.59
2023-04-08T13:09:18.530Z,95642.38
2023-04-08T13:11:46.640Z,95642.59
2023-04-08T13:14:16.876Z,95642.63
2023-04-08T13:16:45.344Z,95637.63
2023-04-08T13:19:14.047Z,95641.84
2023-04-08T13:21:46.008Z,95643.47
2023-04-08T13:24:14.516Z,95641.44
2023-04-08T13:26:42.687Z,95644.91
2023-04-08T13:29:11.304Z,95641.69
2023-04-08T13:31:39.921Z,95645.50
2023-04-08T13:34:09.603Z,95645.09
2023-04-08T13:36:38.075Z,95652.00
2023-04-08T13:39:07.660Z,95650.59
2023-04-08T13:41:35.931Z,95649.41
2023-04-08T13:44:04.608Z,95647.41
2023-04-08T13:46:32.938Z,95642.56
2023-04-08T13:49:02.041Z,95649.81
2023-04-08T13:51:31.631Z,95655.25
2023-04-08T13:54:00.295Z,95656.28
2023-04-08T13:56:29.739Z,95651.84
2023-04-08T13:58:58.128Z,95658.47
2023-04-08T14:01:26.937Z,95659.09
2023-04-08T14:03:55.453Z,95659.47
2023-04-08T14:06:23.825Z,95663.53
2023-04-08T14:08:51.958Z,95663.69
2023-04-08T14:11:21.692Z,95657.47
2023-04-08T14:13:51.516Z,95664.34
2023-04-08T14:16:20.432Z,95666.31
2023-04-08T14:18:48.919Z,95669.56
2023-04-08T14:21:18.354Z,95664.34
2023-04-08T14:23:47.137Z,95672.19
2023-04-08T14:26:15.662Z,95668.34
2023-04-08T14:28:43.706Z,95672.38
2023-04-08T14:31:13.669Z,95675.78
2023-04-08T14:33:42.669Z,95683.66
2023-04-08T14:36:11.620Z,95677.59
2023-04-08T14:38:40.858Z,95681.22
2023-04-08T14:41:08.977Z,95683.03
2023-04-08T14:43:37.546Z,95684.84
2023-04-08T14:46:06.435Z,95685.28
2023-04-08T14:48:36.246Z,95685.69
2023-04-08T14:51:06.344Z,95686.25
2023-04-08T14:53:35.227Z,95688.50
2023-04-08T14:56:04.268Z,95695.53
2023-04-08T14:58:32.560Z,95690.09
2023-04-08T15:01:00.618Z,95692.72
2023-04-08T15:03:29.438Z,95699.16
2023-04-08T15:05:59.830Z,95690.47
2023-04-08T15:08:28.352Z,95693.06
2023-04-08T15:10:57.074Z,95693.88
2023-04-08T15:13:25.564Z,95701.09
2023-04-08T15:15:54.080Z,95700.94
2023-04-08T15:18:22.587Z,95704.38
2023-04-08T15:20:51.181Z,95704.38
2023-04-08T15:23:21.276Z,95711.03
2023-04-08T15:25:49.750Z,95699.34
2023-04-08T15:28:19.260Z,95703.78
2023-04-08T15:30:47.717Z,95711.44
2023-04-08T15:33:16.868Z,95712.66
2023-04-08T15:35:47.610Z,95711.47
2023-04-08T15:38:16.905Z,95706.81
2023-04-08T15:40:48.274Z,95703.38
2023-04-08T15:43:16.825Z,95708.41
2023-04-08T15:45:47.026Z,95711.22
2023-04-08T15:48:15.530Z,95707.38
2023-04-08T15:50:44.518Z,95713.03
2023-04-08T15:53:12.635Z,95715.25
2023-04-08T15:55:42.357Z,95717.66
2023-04-08T15:58:11.941Z,95717.06
2023-04-08T16:00:40.602Z,95722.72
2023-04-08T16:03:12.384Z,95725.34
2023-04-08T16:05:41.969Z,95726.16
2023-04-08T16:08:11.877Z,95727.97
2023-04-08T16:10:40.252Z,95727.16
2023-04-08T16:13:09.444Z,95729.97
2023-04-08T16:15:39.397Z,95732.41
2023-04-08T16:18:07.984Z,95732.56
2023-04-08T16:20:39.345Z,95732.19
2023-04-08T16:23:07.652Z,95731.78
2023-04-08T16:25:36.667Z,95737.22
2023-04-08T16:28:04.888Z,95728.34
2023-04-08T16:30:33.764Z,95742.25
2023-04-08T16:33:04.076Z,95737.63
2023-04-08T16:35:33.706Z,95744.47
2023-04-08T16:38:01.829Z,95741.84
2023-04-08T16:40:33.577Z,95740.63
2023-04-08T16:43:02.641Z,95746.31
2023-04-08T16:45:32.577Z,95747.91
2023-04-08T16:48:01.226Z,95751.91
2023-04-08T16:50:31.304Z,95746.88
2023-04-08T16:52:59.859Z,95743.66
2023-04-08T16:55:27.972Z,95745.66
2023-04-08T16:57:56.078Z,95747.91
2023-04-08T17:00:24.694Z,95749.31
2023-04-08T17:02:53.723Z,95748.94
2023-04-08T17:05:23.219Z,95749.72
2023-04-08T17:07:53.585Z,95753.38
2023-04-08T17:10:24.974Z,95754.34
2023-04-08T17:12:53.054Z,95758.75
2023-04-08T17:15:22.345Z,95755.34
2023-04-08T17:17:51.182Z,95758.97
2023-04-08T17:20:19.559Z,95761.78
2023-04-08T17:22:48.132Z,95759.97
2023-04-08T17:25:17.891Z,95760.19
2023-04-08T17:27:46.164Z,95762.22
2023-04-08T17:30:14.896Z,95770.66
2023-04-08T17:32:43.136Z,95776.28
2023-04-08T17:35:11.606Z,95775.09
2023-04-08T17:37:39.650Z,95778.50
2023-04-08T17:40:10.108Z,95783.16
2023-04-08T17:42:41.381Z,95775.88
2023-04-08T17:45:10.689Z,95780.72
2023-04-08T17:47:39.509Z,95783.53
2023-04-08T17:50:11.724Z,95787.16
2023-04-08T17:52:41.104Z,95786.34
2023-04-08T17:55:10.863Z,95789.19
2023-04-08T17:57:41.215Z,95794.41
2023-04-08T18:00:10.746Z,95790.16
2023-04-08T18:02:42.590Z,95790.38
2023-04-08T18:05:12.248Z,95795.22
2023-04-08T18:07:40.665Z,95802.66
2023-04-08T18:10:10.856Z,95800.47
2023-04-08T18:12:40.747Z,95803.06
2023-04-08T18:15:10.629Z,95803.06
2023-04-08T18:17:40.615Z,95811.31
2023-04-08T18:20:10.815Z,95808.09
2023-04-08T18:22:40.052Z,95818.16
2023-04-08T18:25:08.858Z,95823.59
2023-04-08T18:27:37.079Z,95822.19
2023-04-08T18:30:08.616Z,95829.25
2023-04-08T18:32:37.514Z,95833.47
2023-04-08T18:35:07.497Z,95825.63
2023-04-08T18:37:35.654Z,95836.69
2023-04-08T18:40:04.605Z,95842.72
2023-04-08T18:42:33.127Z,95842.50
2023-04-08T18:45:02.349Z,95846.34
2023-04-08T18:47:32.619Z,95847.16
2023-04-08T18:50:01.612Z,95847.16
2023-04-08T18:52:32.420Z,95858.03
2023-04-08T18:55:01.269Z,95854.78
2023-04-08T18:57:30.194Z,95860.44
2023-04-08T18:59:58.562Z,95860.22
2023-04-08T19:02:27.334Z,95863.66
2023-04-08T19:04:58.682Z,95861.25
2023-04-08T19:07:27.427Z,95861.44
2023-04-08T19:09:58.077Z,95864.84
2023-04-08T19:12:27.216Z,95867.47
2023-04-08T19:14:56.144Z,95864.44
2023-04-08T19:17:24.248Z,95873.31
2023-04-08T19:19:52.446Z,95874.91
2023-04-08T19:22:22.862Z,95868.06
2023-04-08T19:24:53.113Z,95883.38
2023-04-08T19:27:23.171Z,95885.78
2023-04-08T19:29:51.748Z,95876.34
2023-04-08T19:32:21.133Z,95878.31
2023-04-08T19:34:49.504Z,95890.59
2023-04-08T19:37:17.612Z,95886.16
2023-04-08T19:39:47.102Z,95883.75
2023-04-08T19:42:15.918Z,95889.41
2023-04-08T19:44:44.278Z,95882.38
2023-04-08T19:47:12.472Z,95893.03
2023-04-08T19:49:40.716Z,95893.22
2023-04-08T19:52:09.353Z,95890.19
2023-04-08T19:54:41.436Z,95892.22
2023-04-08T19:57:12.582Z,95891.38
2023-04-08T19:59:40.680Z,95887.78
2023-04-08T20:02:09.543Z,95892.38
2023-04-08T20:04:38.082Z,95889.41
2023-04-08T20:07:06.258Z,95890.00
2023-04-08T20:09:34.656Z,95894.63
2023-04-08T20:12:06.180Z,95892.59
2023-04-08T20:14:37.806Z,95900.66
2023-04-08T20:17:06.846Z,95905.28
2023-04-08T20:19:35.028Z,95899.88
2023-04-08T20:22:03.312Z,95910.53
2023-04-08T20:24:31.785Z,95902.84
2023-04-08T20:27:00.336Z,95898.22
2023-04-08T20:29:29.717Z,95898.00
2023-04-08T20:31:59.982Z,95903.25
2023-04-08T20:34:28.214Z,95907.25
2023-04-08T20:36:57.417Z,95898.78
2023-04-08T20:39:30.399Z,95902.00
2023-04-08T20:41:59.801Z,95898.34
2023-04-08T20:44:29.433Z,95897.56
2023-04-08T20:46:59.357Z,95897.75
2023-04-08T20:49:28.321Z,95897.75
2023-04-08T20:51:56.874Z,95896.94
2023-04-08T20:54:26.286Z,95899.56
2023-04-08T20:56:54.597Z,95900.94
2023-04-08T20:59:23.010Z,95902.59
2023-04-08T21:01:53.947Z,95902.38
2023-04-08T21:04:24.775Z,95908.41
2023-04-08T21:06:53.819Z,95902.59
2023-04-08T21:09:22.550Z,95901.97
2023-04-08T21:11:51.079Z,95903.97
2023-04-08T21:14:19.459Z,95902.72
2023-04-08T21:16:48.367Z,95904.78
2023-04-08T21:19:17.311Z,95902.97
2023-04-08T21:21:47.420Z,95905.56
2023-04-08T21:24:17.299Z,95902.16
2023-04-08T21:26:46.000Z,95907.59
2023-04-08T21:29:14.239Z,95902.56
2023-04-08T21:31:42.557Z,95913.03
2023-04-08T21:34:11.512Z,95913.81
2023-04-08T21:36:40.332Z,95906.78
2023-04-08T21:39:10.525Z,95910.78
2023-04-08T21:41:38.876Z,95913.81
2023-04-08T21:44:07.776Z,95917.44
2023-04-08T21:46:36.175Z,95915.81
2023-04-08T21:49:04.553Z,95910.16
2023-04-08T21:51:33.199Z,95912.38
2023-04-08T21:54:01.414Z,95914.44
2023-04-08T21:56:31.308Z,95906.19
2023-04-08T21:58:59.785Z,95914.44
2023-04-08T22:01:28.574Z,95911.00
2023-04-08T22:03:57.117Z,95908.78
2023-04-08T22:06:32.257Z,95913.03
2023-04-08T22:09:01.615Z,95915.44
2023-04-08T22:11:31.339Z,95914.81
2023-04-08T22:14:00.104Z,95914.41
2023-04-08T22:16:28.367Z,95910.75
2023-04-08T22:18:56.569Z,95906.72
2023-04-08T22:21:24.918Z,95912.31
2023-04-08T22:23:53.567Z,95913.13
2023-04-08T22:26:22.420Z,95920.00
2023-04-08T22:28:52.743Z,95919.78
2023-04-08T22:31:22.625Z,95917.19
2023-04-08T22:33:51.511Z,95911.38
2023-04-08T22:36:19.824Z,95914.59
2023-04-08T22:38:48.000Z,95914.16
2023-04-08T22:41:21.020Z,95915.38
2023-04-08T22:43:49.733Z,95912.97
2023-04-08T22:46:20.205Z,95918.56
2023-04-08T22:48:49.445Z,95915.75
2023-04-08T22:51:18.243Z,95911.69
2023-04-08T22:53:47.231Z,95912.69
2023-04-08T22:56:16.903Z,95911.28
2023-04-08T22:58:46.872Z,95911.06
2023-04-08T23:01:18.251Z,95911.69
2023-04-08T23:03:48.469Z,95912.13
2023-04-08T23:06:16.926Z,95919.34
2023-04-08T23:08:45.410Z,95910.50
2023-04-08T23:11:13.385Z,95907.09
2023-04-08T23:13:42.532Z,95909.31
2023-04-08T23:16:11.017Z,95911.31
2023-04-08T23:18:39.453Z,95910.28
2023-04-08T23:21:09.523Z,95913.88
2023-04-08T23:23:38.319Z,95911.69
2023-04-08T23:26:06.737Z,95906.88
2023-04-08T23:28:34.881Z,95911.69
2023-04-08T23:31:07.557Z,95917.47
2023-04-08T23:33:36.431Z,95910.63
2023-04-08T23:36:09.570Z,95916.88
2023-04-08T23:38:42.711Z,95913.88
2023-04-08T23:41:11.439Z,95916.91
2023-04-08T23:43:41.458Z,95917.47
2023-04-08T23:46:11.891Z,95914.03
2023-04-08T23:48:40.327Z,95913.63
2023-04-08T23:51:11.712Z,95912.41
2023-04-08T23:53:39.953Z,95914.22
2023-04-08T23:56:10.461Z,95915.22
2023-04-08T23:58:39.273Z,95912.63
